Terminal Aerodrome Forecast
Issued by NWS Charleston, SC

Home | Current Version | Previous Version | Text Only | Print | Product List | Glossary On
Versions: 1 2 3 4 5 6 7 8 9 10 11 12 13
868
FTUS42 KCHS 191328 AAA
TAFSAV
TAF AMD
KSAV 191328Z 1913/2012 29013G19KT P6SM SCT060
      TEMPO 1913/1915 BKN018 OVC025
     FM191700 31010KT P6SM SKC
     FM200600 35004KT P6SM SKC=

USA.gov is the U.S. government's official web portal to all federal, state and local government web resources and services.